Terminal Aerodrome Forecast
Issued by NWS

Home | Current Version | Previous Version | Text Only | Print | Product List | Glossary On
Versions: 1 2 3 4 5 6 7 8 9 10 11 12 13 14 15 16 17 18 19 20 21 22 23 24 25 26 27 28 29 30 31
233
FTUS41 KBUF 271120
TAFIAG
TAF
KIAG 271120Z 2712/2812 20008KT P6SM SCT025 OVC040
     FM271500 22008KT 2SM BR OVC012
     FM271800 23009KT 4SM BR OVC015
     FM280200 21007KT P6SM OVC025
     FM280800 VRB03KT 6SM BR VCSH OVC020
     FM281000 VRB03KT 4SM -SHRA OVC007=

USA.gov is the U.S. government's official web portal to all federal, state and local government web resources and services.